Time;durP1;ratioP1;P1;durP2;ratioP2;P2;SDS_P1;SDS_P2;PMS_P1;PMS_P2;Temp;Humidity;BMP_temperature;BMP_pressure;BME280_temperature;BME280_humidity;BME280_pressure;Samples;Min_cycle;Max_cycle;Signal;HPM_P1;HPM_P2
2024/01/08 00:00:34;;;;;;;12.63;6.93;;;;;;;;;;5073836;28;20276;-59
2024/01/08 00:03:01;;;;;;;9.40;6.07;;;;;;;;;;5073749;28;20235;-59
2024/01/08 00:05:32;;;;;;;9.45;6.20;;;;;;;;;;5073672;28;20280;-60
2024/01/08 00:08:02;;;;;;;11.27;7.55;;;;;;;;;;5071947;28;20599;-60
2024/01/08 00:10:28;;;;;;;9.38;7.00;;;;;;;;;;5073761;28;20292;-59
2024/01/08 00:12:55;;;;;;;12.05;5.93;;;;;;;;;;5073634;28;20185;-58
2024/01/08 00:15:22;;;;;;;9.75;6.15;;;;;;;;;;5073511;28;20633;-58
2024/01/08 00:17:49;;;;;;;15.23;6.38;;;;;;;;;;5073463;28;20284;-59
2024/01/08 00:20:27;;;;;;;9.95;7.20;;;;;;;;;;5072941;28;20472;-59
2024/01/08 00:22:56;;;;;;;10.05;6.93;;;;;;;;;;5073569;28;20276;-59
2024/01/08 00:25:23;;;;;;;9.55;5.90;;;;;;;;;;5073381;28;20548;-57
2024/01/08 00:27:50;;;;;;;7.20;5.65;;;;;;;;;;5073418;28;20720;-58
2024/01/08 00:30:19;;;;;;;12.27;6.43;;;;;;;;;;5073258;28;20284;-59
2024/01/08 00:32:50;;;;;;;9.70;6.03;;;;;;;;;;5073279;28;20197;-59
2024/01/08 00:35:17;;;;;;;9.07;6.00;;;;;;;;;;5073034;28;20584;-59
2024/01/08 00:37:44;;;;;;;12.27;6.75;;;;;;;;;;5073369;28;20294;-59
2024/01/08 00:40:13;;;;;;;11.60;7.78;;;;;;;;;;5073197;28;20296;-59
2024/01/08 00:42:40;;;;;;;11.25;6.13;;;;;;;;;;5073046;28;20667;-60
2024/01/08 00:45:19;;;;;;;10.35;5.90;;;;;;;;;;5073108;28;20279;-59
2024/01/08 00:47:46;;;;;;;12.10;6.55;;;;;;;;;;5073372;28;20617;-59
2024/01/08 00:50:13;;;;;;;12.43;6.43;;;;;;;;;;5073178;28;20203;-57
2024/01/08 00:52:40;;;;;;;10.68;6.95;;;;;;;;;;5073564;28;20185;-58
2024/01/08 00:55:08;;;;;;;11.85;6.53;;;;;;;;;;5072727;28;20634;-59
2024/01/08 00:57:42;;;;;;;12.77;7.07;;;;;;;;;;5072853;28;20193;-60
2024/01/08 01:00:10;;;;;;;7.18;5.15;;;;;;;;;;5073143;28;20207;-59
2024/01/08 01:02:38;;;;;;;7.40;5.93;;;;;;;;;;5072927;28;20674;-58
2024/01/08 01:05:05;;;;;;;10.13;6.70;;;;;;;;;;5073168;28;20193;-60
2024/01/08 01:07:33;;;;;;;8.68;6.25;;;;;;;;;;5072931;28;20186;-60
2024/01/08 01:10:04;;;;;;;11.70;6.22;;;;;;;;;;5072680;28;20197;-60
2024/01/08 01:12:31;;;;;;;11.80;6.05;;;;;;;;;;5073105;28;20208;-59
2024/01/08 01:14:59;;;;;;;11.02;6.35;;;;;;;;;;5072852;28;20284;-59
2024/01/08 01:17:26;;;;;;;8.63;6.10;;;;;;;;;;5072865;28;20288;-59
2024/01/08 01:19:53;;;;;;;9.55;6.55;;;;;;;;;;5072720;28;20728;-59
2024/01/08 01:22:20;;;;;;;9.80;6.68;;;;;;;;;;5072694;28;20280;-60
2024/01/08 01:24:52;;;;;;;15.32;7.43;;;;;;;;;;5072598;28;20189;-60
2024/01/08 01:27:19;;;;;;;10.00;6.20;;;;;;;;;;5072811;28;20276;-60
2024/01/08 01:29:46;;;;;;;9.80;6.68;;;;;;;;;;5072762;28;20195;-60
2024/01/08 01:32:14;;;;;;;13.65;6.70;;;;;;;;;;5072635;28;20620;-60
2024/01/08 01:34:41;;;;;;;9.32;6.07;;;;;;;;;;5072650;28;20372;-60
2024/01/08 01:37:13;;;;;;;6.72;5.50;;;;;;;;;;5072296;28;20271;-62
2024/01/08 01:39:40;;;;;;;9.27;5.88;;;;;;;;;;5072444;28;20196;-61
2024/01/08 01:42:07;;;;;;;10.40;6.60;;;;;;;;;;5072761;28;20186;-61
2024/01/08 01:44:34;;;;;;;9.40;5.70;;;;;;;;;;5072551;28;20189;-59
2024/01/08 01:47:01;;;;;;;9.75;6.25;;;;;;;;;;5072568;28;20624;-58
2024/01/08 01:49:43;;;;;;;10.40;6.50;;;;;;;;;;5072681;28;20224;-60
2024/01/08 01:52:10;;;;;;;11.45;6.72;;;;;;;;;;5072723;28;20189;-59
2024/01/08 01:54:37;;;;;;;9.13;6.30;;;;;;;;;;5072530;28;20316;-59
2024/01/08 01:57:05;;;;;;;9.88;6.72;;;;;;;;;;5072506;28;20572;-61
2024/01/08 01:59:36;;;;;;;7.90;5.93;;;;;;;;;;5072346;28;20244;-60
2024/01/08 02:02:10;;;;;;;9.55;5.75;;;;;;;;;;5072349;28;20194;-62
2024/01/08 02:04:39;;;;;;;12.32;6.57;;;;;;;;;;5072608;28;20292;-58
2024/01/08 02:07:06;;;;;;;7.53;5.18;;;;;;;;;;5072502;28;20189;-59
2024/01/08 02:09:33;;;;;;;15.02;8.25;;;;;;;;;;5073535;28;20193;-59
2024/01/08 02:12:01;;;;;;;11.52;7.45;;;;;;;;;;5075937;28;20211;-60
2024/01/08 02:14:32;;;;;;;13.98;7.20;;;;;;;;;;5075786;28;20189;-60
2024/01/08 02:16:59;;;;;;;13.30;6.45;;;;;;;;;;5075680;28;20225;-58
2024/01/08 02:19:26;;;;;;;8.50;5.65;;;;;;;;;;5075707;28;20253;-58
2024/01/08 02:21:54;;;;;;;8.43;6.10;;;;;;;;;;5075962;28;20192;-60
2024/01/08 02:24:22;;;;;;;11.95;6.50;;;;;;;;;;5075656;28;20247;-62
2024/01/08 02:26:52;;;;;;;8.48;6.15;;;;;;;;;;5075655;28;20189;-57
2024/01/08 02:29:21;;;;;;;10.23;6.28;;;;;;;;;;5075807;28;20585;-59
2024/01/08 02:31:48;;;;;;;11.98;6.38;;;;;;;;;;5075497;28;20189;-58
2024/01/08 02:34:15;;;;;;;12.80;6.60;;;;;;;;;;5075642;28;20272;-59
2024/01/08 02:36:42;;;;;;;14.45;6.53;;;;;;;;;;5075385;28;20315;-58
2024/01/08 02:39:20;;;;;;;8.50;5.32;;;;;;;;;;5075447;28;20197;-59
2024/01/08 02:41:48;;;;;;;9.02;6.32;;;;;;;;;;5075306;28;20686;-59
2024/01/08 02:44:15;;;;;;;8.68;5.95;;;;;;;;;;5075289;28;20276;-59
2024/01/08 02:46:42;;;;;;;9.93;5.95;;;;;;;;;;5075353;28;20329;-60
2024/01/08 02:49:09;;;;;;;11.45;6.07;;;;;;;;;;5075295;28;20284;-59
2024/01/08 02:51:38;;;;;;;14.50;7.53;;;;;;;;;;5075607;28;20197;-59
2024/01/08 02:54:05;;;;;;;9.95;5.68;;;;;;;;;;5074873;28;20538;-60
2024/01/08 02:56:31;;;;;;;10.52;7.13;;;;;;;;;;5074902;28;20300;-59
2024/01/08 02:59:05;;;;;;;9.13;6.20;;;;;;;;;;5075224;28;20192;-59
2024/01/08 03:01:33;;;;;;;9.10;5.50;;;;;;;;;;5075129;28;20618;-57
2024/01/08 03:04:07;;;;;;;11.30;7.00;;;;;;;;;;5075035;28;20247;-59
2024/01/08 03:06:34;;;;;;;9.65;6.25;;;;;;;;;;5075007;28;20185;-59
2024/01/08 03:09:01;;;;;;;10.43;6.13;;;;;;;;;;5074672;28;20203;-58
2024/01/08 03:11:28;;;;;;;9.95;6.10;;;;;;;;;;5075000;28;20276;-57
2024/01/08 03:13:57;;;;;;;10.27;5.93;;;;;;;;;;5074896;28;20193;-58
2024/01/08 03:16:30;;;;;;;9.35;5.50;;;;;;;;;;5074791;28;20595;-58
2024/01/08 03:18:57;;;;;;;7.70;5.18;;;;;;;;;;5074663;28;20276;-59
2024/01/08 03:21:24;;;;;;;10.95;6.20;;;;;;;;;;5074400;28;20278;-59
2024/01/08 03:24:08;;;;;;;9.55;6.38;;;;;;;;;;5074802;28;20375;-59
2024/01/08 03:26:35;;;;;;;11.85;6.80;;;;;;;;;;5074669;28;20193;-60
2024/01/08 03:29:02;;;;;;;10.35;6.35;;;;;;;;;;5074467;28;20296;-61
2024/01/08 03:31:32;;;;;;;12.48;6.60;;;;;;;;;;5074423;28;20192;-60
2024/01/08 03:33:59;;;;;;;11.93;6.15;;;;;;;;;;5074182;28;20193;-59
2024/01/08 03:36:26;;;;;;;8.98;5.63;;;;;;;;;;5074326;28;20221;-60
2024/01/08 03:38:53;;;;;;;11.75;6.43;;;;;;;;;;5074574;28;20192;-60
2024/01/08 03:41:25;;;;;;;10.98;6.32;;;;;;;;;;5074259;28;20273;-59
2024/01/08 03:43:52;;;;;;;12.65;5.93;;;;;;;;;;5072110;28;20185;-60
2024/01/08 03:46:19;;;;;;;8.57;5.30;;;;;;;;;;5073960;28;20196;-59
2024/01/08 03:49:08;;;;;;;14.50;6.43;;;;;;;;;;5074174;28;20263;-61
2024/01/08 03:51:36;;;;;;;10.20;5.82;;;;;;;;;;5073579;28;20201;-58
2024/01/08 03:54:03;;;;;;;11.95;6.43;;;;;;;;;;5073670;28;20276;-61
2024/01/08 03:56:41;;;;;;;9.50;6.47;;;;;;;;;;5073762;28;20306;-59
2024/01/08 03:59:08;;;;;;;9.65;6.78;;;;;;;;;;5073810;28;20193;-61
2024/01/08 04:01:43;;;;;;;7.13;4.90;;;;;;;;;;5073883;28;20285;-57
2024/01/08 04:04:15;;;;;;;12.13;7.25;;;;;;;;;;5073879;28;20584;-59
2024/01/08 04:06:43;;;;;;;12.68;6.63;;;;;;;;;;5073708;28;20189;-60
2024/01/08 04:09:10;;;;;;;8.65;5.88;;;;;;;;;;5073533;28;20716;-59
2024/01/08 04:11:44;;;;;;;7.85;5.70;;;;;;;;;;5073471;28;20296;-60
2024/01/08 04:14:12;;;;;;;10.10;5.60;;;;;;;;;;5073118;28;20193;-60
2024/01/08 04:16:39;;;;;;;7.68;5.55;;;;;;;;;;5073468;28;20209;-58
2024/01/08 04:19:06;;;;;;;12.68;6.53;;;;;;;;;;5073586;28;20552;-60
2024/01/08 04:21:38;;;;;;;11.50;6.40;;;;;;;;;;5073412;28;20185;-59
2024/01/08 04:24:06;;;;;;;11.05;6.50;;;;;;;;;;5073344;28;20280;-60
2024/01/08 04:26:33;;;;;;;8.32;5.13;;;;;;;;;;5073475;28;20633;-60
2024/01/08 04:29:11;;;;;;;12.27;6.35;;;;;;;;;;5073407;28;20288;-59
2024/01/08 04:31:38;;;;;;;9.45;5.85;;;;;;;;;;5073060;28;20276;-60
2024/01/08 04:34:05;;;;;;;10.35;6.47;;;;;;;;;;5073073;28;20185;-58
2024/01/08 04:36:36;;;;;;;6.82;5.45;;;;;;;;;;5072997;28;20295;-60
2024/01/08 04:39:03;;;;;;;8.32;5.60;;;;;;;;;;5073046;28;20277;-60
2024/01/08 04:41:32;;;;;;;10.77;6.30;;;;;;;;;;5073304;28;20722;-60
2024/01/08 04:43:59;;;;;;;10.43;6.50;;;;;;;;;;5073186;28;20197;-59
2024/01/08 04:46:32;;;;;;;12.45;6.82;;;;;;;;;;5073038;28;20185;-60
2024/01/08 04:48:59;;;;;;;10.52;5.57;;;;;;;;;;5073155;28;20280;-58
2024/01/08 04:51:26;;;;;;;11.57;6.85;;;;;;;;;;5073209;28;20201;-61
2024/01/08 04:53:54;;;;;;;10.60;6.88;;;;;;;;;;5073129;28;20186;-60
2024/01/08 04:56:22;;;;;;;7.88;5.45;;;;;;;;;;5072777;28;20276;-60
2024/01/08 04:58:51;;;;;;;10.30;6.25;;;;;;;;;;5073101;28;20193;-60
2024/01/08 05:01:18;;;;;;;9.50;6.57;;;;;;;;;;5072815;28;20283;-60
2024/01/08 05:03:53;;;;;;;13.43;7.88;;;;;;;;;;5072935;28;20235;-61
2024/01/08 05:06:20;;;;;;;8.93;6.05;;;;;;;;;;5072936;28;20193;-60
2024/01/08 05:08:47;;;;;;;12.23;7.22;;;;;;;;;;5073027;28;20641;-60
2024/01/08 05:11:19;;;;;;;8.68;5.95;;;;;;;;;;5072881;28;20284;-60
2024/01/08 05:13:46;;;;;;;12.00;6.53;;;;;;;;;;5072441;28;20649;-61
2024/01/08 05:16:14;;;;;;;9.32;5.90;;;;;;;;;;5073033;28;20204;-58
2024/01/08 05:18:41;;;;;;;13.32;5.97;;;;;;;;;;5072902;28;20280;-60
2024/01/08 05:21:09;;;;;;;9.98;5.55;;;;;;;;;;5072877;28;20613;-60
2024/01/08 05:23:36;;;;;;;12.68;6.63;;;;;;;;;;5072430;28;20192;-60
2024/01/08 05:26:03;;;;;;;12.25;6.78;;;;;;;;;;5072803;28;20196;-59
2024/01/08 05:28:30;;;;;;;12.15;6.50;;;;;;;;;;5072498;28;20648;-58
2024/01/08 05:31:04;;;;;;;9.52;5.93;;;;;;;;;;5072791;28;20276;-61
2024/01/08 05:33:33;;;;;;;9.82;5.38;;;;;;;;;;5072913;28;20193;-58
2024/01/08 05:36:00;;;;;;;10.38;6.50;;;;;;;;;;5072689;28;20188;-61
2024/01/08 05:38:32;;;;;;;20.15;7.22;;;;;;;;;;5072591;28;20221;-60
2024/01/08 05:40:59;;;;;;;11.18;6.68;;;;;;;;;;5072525;28;20195;-59
2024/01/08 05:43:26;;;;;;;8.73;6.45;;;;;;;;;;5072736;28;20280;-59
2024/01/08 05:45:53;;;;;;;10.50;5.97;;;;;;;;;;5075754;28;20204;-60
2024/01/08 05:48:22;;;;;;;10.07;6.13;;;;;;;;;;5076211;28;20644;-59
2024/01/08 05:50:51;;;;;;;8.73;6.68;;;;;;;;;;5076252;28;20275;-61
2024/01/08 05:53:18;;;;;;;10.30;6.35;;;;;;;;;;5076240;28;20278;-59
2024/01/08 05:55:53;;;;;;;11.02;6.88;;;;;;;;;;5076053;28;20225;-58
2024/01/08 05:58:20;;;;;;;11.18;6.82;;;;;;;;;;5075765;28;20763;-59
2024/01/08 06:00:47;;;;;;;13.77;6.53;;;;;;;;;;5076104;28;20276;-59
2024/01/08 06:03:14;;;;;;;10.70;6.40;;;;;;;;;;5075946;28;20552;-60
2024/01/08 06:05:46;;;;;;;10.50;6.47;;;;;;;;;;5075766;28;20193;-60
2024/01/08 06:08:14;;;;;;;9.60;6.18;;;;;;;;;;5075836;28;20297;-60
2024/01/08 06:10:41;;;;;;;8.27;5.15;;;;;;;;;;5076043;28;20224;-59
2024/01/08 06:13:20;;;;;;;9.10;6.00;;;;;;;;;;5075917;28;20197;-61
2024/01/08 06:15:47;;;;;;;11.95;6.18;;;;;;;;;;5075864;28;20613;-60
2024/01/08 06:18:14;;;;;;;12.02;7.03;;;;;;;;;;5075684;28;20209;-60
2024/01/08 06:20:47;;;;;;;9.35;6.88;;;;;;;;;;5075503;28;20197;-59
2024/01/08 06:23:15;;;;;;;10.05;5.93;;;;;;;;;;5075557;28;20185;-60
2024/01/08 06:25:42;;;;;;;8.90;5.63;;;;;;;;;;5075713;28;20284;-60
2024/01/08 06:28:09;;;;;;;8.68;5.80;;;;;;;;;;5075605;28;20189;-60
2024/01/08 06:30:45;;;;;;;11.35;7.75;;;;;;;;;;5075574;28;20192;-60
2024/01/08 06:33:11;;;;;;;9.55;6.80;;;;;;;;;;5075334;28;20238;-60
2024/01/08 06:35:40;;;;;;;10.05;6.30;;;;;;;;;;5075486;28;20276;-59
2024/01/08 06:38:23;;;;;;;10.20;6.78;;;;;;;;;;5075397;28;20217;-60
2024/01/08 06:40:50;;;;;;;9.10;5.47;;;;;;;;;;5075344;28;20196;-60
2024/01/08 06:43:17;;;;;;;9.13;6.80;;;;;;;;;;5075424;28;20195;-59
2024/01/08 06:45:58;;;;;;;11.77;5.60;;;;;;;;;;5075193;28;20197;-60
2024/01/08 06:48:25;;;;;;;8.32;6.63;;;;;;;;;;5075440;28;20634;-59
2024/01/08 06:50:52;;;;;;;9.43;7.18;;;;;;;;;;5075104;28;20292;-59
2024/01/08 06:53:21;;;;;;;12.73;7.55;;;;;;;;;;5075103;28;20185;-58
2024/01/08 06:55:50;;;;;;;10.15;6.95;;;;;;;;;;5074200;28;20312;-58
2024/01/08 06:58:16;;;;;;;9.95;6.45;;;;;;;;;;5074722;28;20308;-59
2024/01/08 07:00:43;;;;;;;10.75;7.18;;;;;;;;;;5075180;28;20185;-58
2024/01/08 07:03:16;;;;;;;11.82;7.38;;;;;;;;;;5075058;28;20199;-59
2024/01/08 07:05:43;;;;;;;14.48;9.18;;;;;;;;;;5074368;28;20193;-59
2024/01/08 07:08:10;;;;;;;11.73;6.75;;;;;;;;;;5074924;28;20200;-60
2024/01/08 07:10:38;;;;;;;12.07;8.52;;;;;;;;;;5074738;28;20196;-58
2024/01/08 07:13:21;;;;;;;16.00;9.25;;;;;;;;;;5074921;28;20391;-59
2024/01/08 07:15:48;;;;;;;11.45;6.53;;;;;;;;;;5074811;28;20526;-59
2024/01/08 07:18:16;;;;;;;8.57;6.90;;;;;;;;;;5074517;28;20290;-59
2024/01/08 07:20:52;;;;;;;13.18;8.25;;;;;;;;;;5074499;28;20196;-59
2024/01/08 07:23:19;;;;;;;13.48;7.55;;;;;;;;;;5074341;28;20203;-59
2024/01/08 07:25:50;;;;;;;11.90;7.35;;;;;;;;;;5074678;28;20217;-59
2024/01/08 07:28:32;;;;;;;13.25;7.30;;;;;;;;;;5074608;28;20201;-59
2024/01/08 07:31:00;;;;;;;15.75;7.50;;;;;;;;;;5074502;28;20641;-59
2024/01/08 07:33:27;;;;;;;11.75;8.40;;;;;;;;;;5074332;28;20254;-59
2024/01/08 07:36:06;;;;;;;18.95;8.75;;;;;;;;;;5074472;28;20219;-60
2024/01/08 07:38:33;;;;;;;12.20;7.90;;;;;;;;;;5074169;28;20217;-61
2024/01/08 07:41:01;;;;;;;10.25;7.38;;;;;;;;;;5074211;28;20273;-60
2024/01/08 07:43:29;;;;;;;14.25;8.10;;;;;;;;;;5074186;28;20215;-60
2024/01/08 07:45:56;;;;;;;15.18;8.93;;;;;;;;;;5073789;28;20193;-61
2024/01/08 07:48:23;;;;;;;13.85;8.50;;;;;;;;;;5074061;28;20200;-60
2024/01/08 07:50:50;;;;;;;11.43;7.30;;;;;;;;;;5074239;28;20224;-60
2024/01/08 07:53:30;;;;;;;16.35;8.55;;;;;;;;;;5074019;28;20280;-61
2024/01/08 07:55:57;;;;;;;11.43;7.80;;;;;;;;;;5073611;28;20286;-58
2024/01/08 07:58:25;;;;;;;12.93;8.10;;;;;;;;;;5073657;28;20260;-58
2024/01/08 08:00:53;;;;;;;9.27;7.35;;;;;;;;;;5073877;28;20286;-59
2024/01/08 08:03:27;;;;;;;12.70;8.88;;;;;;;;;;5073267;28;20284;-61
2024/01/08 08:05:54;;;;;;;13.48;7.68;;;;;;;;;;5074035;28;20228;-61
2024/01/08 08:08:20;;;;;;;13.25;8.50;;;;;;;;;;5072878;28;20595;-59
2024/01/08 08:10:51;;;;;;;11.23;6.93;;;;;;;;;;5073706;28;20284;-59
2024/01/08 08:13:21;;;;;;;17.80;8.73;;;;;;;;;;5073423;28;20674;-60
2024/01/08 08:15:49;;;;;;;13.52;7.75;;;;;;;;;;5073376;28;20276;-61
2024/01/08 08:18:16;;;;;;;13.77;8.48;;;;;;;;;;5073448;28;20307;-62
2024/01/08 08:20:43;;;;;;;10.63;6.60;;;;;;;;;;5073299;28;20276;-64
2024/01/08 08:23:12;;;;;;;11.88;6.80;;;;;;;;;;5073192;28;20714;-59
2024/01/08 08:25:42;;;;;;;13.80;8.68;;;;;;;;;;5073715;28;20655;-52
2024/01/08 08:28:10;;;;;;;15.23;8.80;;;;;;;;;;5073418;28;20239;-59
2024/01/08 08:30:40;;;;;;;14.30;8.00;;;;;;;;;;5073015;28;20193;-62
2024/01/08 08:33:12;;;;;;;12.40;7.25;;;;;;;;;;5073123;28;20203;-63
2024/01/08 08:35:39;;;;;;;12.98;7.75;;;;;;;;;;5072817;28;20645;-61
2024/01/08 08:38:06;;;;;;;11.05;6.90;;;;;;;;;;5072883;28;20232;-62
2024/01/08 08:40:33;;;;;;;12.23;7.45;;;;;;;;;;5073274;28;20193;-63
2024/01/08 08:43:00;;;;;;;13.75;8.25;;;;;;;;;;5073211;28;20193;-54
2024/01/08 08:45:28;;;;;;;13.20;8.23;;;;;;;;;;5073190;28;20189;-55
2024/01/08 08:47:55;;;;;;;13.48;7.55;;;;;;;;;;5072972;28;20598;-57
2024/01/08 08:50:23;;;;;;;9.95;7.18;;;;;;;;;;5072941;28;20224;-58
2024/01/08 08:53:06;;;;;;;11.25;7.03;;;;;;;;;;5072835;28;20205;-63
2024/01/08 08:55:33;;;;;;;11.77;6.68;;;;;;;;;;5072707;28;20262;-61
2024/01/08 08:58:00;;;;;;;12.02;6.45;;;;;;;;;;5072941;28;20224;-60
2024/01/08 09:00:33;;;;;;;11.32;7.13;;;;;;;;;;5072752;28;20185;-62
2024/01/08 09:03:03;;;;;;;12.88;7.50;;;;;;;;;;5072649;28;20572;-61
2024/01/08 09:05:31;;;;;;;11.15;6.85;;;;;;;;;;5072796;28;20668;-63
2024/01/08 09:07:58;;;;;;;12.93;7.55;;;;;;;;;;5072872;28;20279;-59
2024/01/08 09:10:37;;;;;;;9.57;6.75;;;;;;;;;;5072882;28;20196;-66
2024/01/08 09:13:04;;;;;;;11.45;7.03;;;;;;;;;;5072849;28;20664;-59
2024/01/08 09:15:31;;;;;;;12.63;7.45;;;;;;;;;;5072669;28;20287;-59
2024/01/08 09:17:58;;;;;;;11.55;8.02;;;;;;;;;;5072984;28;20217;-60
2024/01/08 09:20:27;;;;;;;10.98;6.38;;;;;;;;;;5076894;28;20191;-61
2024/01/08 09:22:56;;;;;;;11.52;7.07;;;;;;;;;;5076835;28;20261;-60
2024/01/08 09:25:23;;;;;;;12.23;7.15;;;;;;;;;;5076711;28;20279;-61
2024/01/08 09:27:50;;;;;;;10.35;6.82;;;;;;;;;;5076622;28;20201;-59
2024/01/08 09:30:19;;;;;;;12.30;7.78;;;;;;;;;;5076434;28;20272;-60
2024/01/08 09:32:50;;;;;;;11.93;7.25;;;;;;;;;;5076494;28;20664;-62
2024/01/08 09:35:17;;;;;;;9.40;6.43;;;;;;;;;;5076684;28;20610;-58
2024/01/08 09:37:43;;;;;;;9.50;6.63;;;;;;;;;;5076427;28;20645;-59
2024/01/08 09:40:13;;;;;;;14.50;7.20;;;;;;;;;;5076435;28;20601;-58
2024/01/08 09:42:46;;;;;;;10.25;7.45;;;;;;;;;;5076300;28;20196;-61
2024/01/08 09:45:14;;;;;;;8.63;5.38;;;;;;;;;;5074420;28;20224;-61
2024/01/08 09:47:41;;;;;;;10.95;6.85;;;;;;;;;;5076379;28;20232;-61
2024/01/08 09:50:09;;;;;;;9.68;6.93;;;;;;;;;;5076113;28;20707;-55
2024/01/08 09:52:37;;;;;;;9.70;7.00;;;;;;;;;;5076120;28;20257;-58
2024/01/08 09:55:09;;;;;;;12.05;5.47;;;;;;;;;;5076010;28;20305;-62
2024/01/08 09:57:37;;;;;;;7.05;4.95;;;;;;;;;;5076421;28;20327;-61
2024/01/08 10:00:05;;;;;;;9.52;6.07;;;;;;;;;;5076116;28;20189;-61
2024/01/08 10:02:32;;;;;;;6.90;5.50;;;;;;;;;;5076059;28;20189;-60
2024/01/08 10:05:03;;;;;;;10.68;5.50;;;;;;;;;;5075906;28;20276;-63
2024/01/08 10:07:34;;;;;;;10.63;6.75;;;;;;;;;;5075925;28;20637;-61
2024/01/08 10:10:01;;;;;;;6.43;5.22;;;;;;;;;;5076153;28;20201;-60
2024/01/08 10:12:38;;;;;;;7.45;5.82;;;;;;;;;;5075968;28;20189;-62
2024/01/08 10:15:08;;;;;;;10.95;6.68;;;;;;;;;;5075832;28;20185;-66
2024/01/08 10:17:35;;;;;;;12.05;6.15;;;;;;;;;;5075682;28;20185;-61
2024/01/08 10:20:07;;;;;;;8.10;5.97;;;;;;;;;;5075629;28;20219;-61
2024/01/08 10:22:34;;;;;;;9.25;5.28;;;;;;;;;;5075641;28;20224;-61
2024/01/08 10:25:03;;;;;;;10.15;5.63;;;;;;;;;;5075671;28;20195;-59
2024/01/08 10:27:30;;;;;;;11.27;5.97;;;;;;;;;;5075482;28;20197;-60
2024/01/08 10:29:57;;;;;;;7.45;4.70;;;;;;;;;;5074554;28;20530;-60
2024/01/08 10:32:25;;;;;;;8.68;5.38;;;;;;;;;;5075333;28;20675;-62
2024/01/08 10:34:53;;;;;;;8.00;4.53;;;;;;;;;;5075337;28;20280;-62
2024/01/08 10:37:28;;;;;;;7.18;5.22;;;;;;;;;;5075273;28;20274;-61
2024/01/08 10:39:57;;;;;;;9.48;5.35;;;;;;;;;;5075206;28;20220;-61
2024/01/08 10:42:24;;;;;;;7.57;5.47;;;;;;;;;;5074947;28;20194;-62
2024/01/08 10:44:51;;;;;;;6.70;4.90;;;;;;;;;;5074511;28;20666;-62
2024/01/08 10:47:20;;;;;;;5.95;4.38;;;;;;;;;;5074847;28;20699;-61
2024/01/08 10:49:51;;;;;;;5.43;4.35;;;;;;;;;;5075273;28;20194;-63
2024/01/08 10:52:32;;;;;;;6.70;4.90;;;;;;;;;;5075224;28;20280;-61
2024/01/08 10:55:00;;;;;;;5.68;4.72;;;;;;;;;;5074965;28;20257;-63
2024/01/08 10:57:29;;;;;;;7.63;5.30;;;;;;;;;;5074776;28;20189;-62
2024/01/08 10:59:57;;;;;;;9.80;5.90;;;;;;;;;;5074826;28;20304;-63
2024/01/08 11:02:27;;;;;;;8.07;4.32;;;;;;;;;;5075048;28;20196;-62
2024/01/08 11:05:00;;;;;;;5.32;4.30;;;;;;;;;;5074671;28;20659;-60
2024/01/08 11:07:28;;;;;;;6.82;4.93;;;;;;;;;;5074967;28;20246;-63
2024/01/08 11:10:04;;;;;;;6.03;4.28;;;;;;;;;;5074709;28;20623;-62
2024/01/08 11:12:36;;;;;;;5.80;3.55;;;;;;;;;;5074816;28;20184;-63
2024/01/08 11:15:03;;;;;;;7.32;4.63;;;;;;;;;;5074670;28;20300;-62
2024/01/08 11:17:30;;;;;;;5.22;4.65;;;;;;;;;;5074724;28;20189;-61
2024/01/08 11:19:59;;;;;;;7.00;4.60;;;;;;;;;;5074393;28;20324;-63
2024/01/08 11:22:27;;;;;;;6.25;4.40;;;;;;;;;;5074386;28;20193;-62
2024/01/08 11:25:03;;;;;;;6.18;4.13;;;;;;;;;;5074365;28;20189;-60
2024/01/08 11:27:32;;;;;;;6.60;4.32;;;;;;;;;;5074183;28;20189;-61
2024/01/08 11:30:01;;;;;;;6.28;4.57;;;;;;;;;;5074567;28;20272;-63
2024/01/08 11:32:49;;;;;;;6.35;4.13;;;;;;;;;;5074360;28;20189;-61
2024/01/08 11:35:39;;;;;;;7.57;4.55;;;;;;;;;;5074423;28;20189;-63
2024/01/08 11:38:17;;;;;;;9.68;5.07;;;;;;;;;;5074426;28;20280;-62
2024/01/08 11:40:44;;;;;;;5.18;3.78;;;;;;;;;;5074219;28;20295;-63
2024/01/08 11:43:32;;;;;;;8.45;4.75;;;;;;;;;;5073732;28;20278;-62
2024/01/08 11:46:02;;;;;;;5.32;3.60;;;;;;;;;;5074332;28;20189;-61
2024/01/08 11:48:30;;;;;;;6.10;3.97;;;;;;;;;;5074197;28;20220;-62
2024/01/08 11:50:58;;;;;;;6.07;4.22;;;;;;;;;;5073861;28;20716;-61
2024/01/08 11:53:25;;;;;;;6.05;3.78;;;;;;;;;;5073762;28;20280;-62
2024/01/08 11:55:52;;;;;;;4.95;4.00;;;;;;;;;;5073638;28;20300;-62
2024/01/08 11:58:19;;;;;;;10.07;4.72;;;;;;;;;;5073623;28;20216;-62
2024/01/08 12:00:47;;;;;;;6.35;3.95;;;;;;;;;;5073806;28;20280;-62
2024/01/08 12:03:19;;;;;;;6.07;3.95;;;;;;;;;;5073756;28;20186;-61
2024/01/08 12:06:01;;;;;;;8.85;4.10;;;;;;;;;;5073627;28;20186;-63
2024/01/08 12:08:30;;;;;;;6.00;3.65;;;;;;;;;;5073623;28;20276;-62
2024/01/08 12:10:58;;;;;;;20.85;4.35;;;;;;;;;;5073658;28;20287;-62
2024/01/08 12:13:31;;;;;;;7.10;3.90;;;;;;;;;;5073615;28;20212;-60
2024/01/08 12:16:01;;;;;;;6.20;4.05;;;;;;;;;;5073389;28;20643;-61
2024/01/08 12:18:28;;;;;;;4.65;3.85;;;;;;;;;;5073353;28;20189;-60
2024/01/08 12:20:55;;;;;;;5.05;3.97;;;;;;;;;;5073182;28;20189;-61
2024/01/08 12:23:22;;;;;;;7.63;4.05;;;;;;;;;;5073163;28;20195;-61
2024/01/08 12:25:53;;;;;;;7.20;4.35;;;;;;;;;;5073422;28;20690;-60
2024/01/08 12:28:20;;;;;;;5.15;3.90;;;;;;;;;;5073357;28;20193;-60
2024/01/08 12:30:53;;;;;;;4.75;3.63;;;;;;;;;;5073086;28;20603;-62
2024/01/08 12:33:21;;;;;;;7.07;4.68;;;;;;;;;;5073093;28;20599;-62
2024/01/08 12:35:52;;;;;;;4.55;3.15;;;;;;;;;;5073127;28;20196;-62
2024/01/08 12:38:20;;;;;;;3.83;2.90;;;;;;;;;;5073321;28;20360;-62
2024/01/08 12:40:47;;;;;;;5.18;3.78;;;;;;;;;;5073049;28;20221;-59
2024/01/08 12:43:24;;;;;;;8.00;3.00;;;;;;;;;;5073066;28;20196;-59
2024/01/08 12:45:51;;;;;;;4.38;3.00;;;;;;;;;;5072803;28;20272;-63
2024/01/08 12:48:18;;;;;;;3.30;2.83;;;;;;;;;;5072960;28;20749;-63
2024/01/08 12:50:47;;;;;;;3.65;3.35;;;;;;;;;;5073137;28;20197;-60
2024/01/08 12:53:18;;;;;;;8.05;4.00;;;;;;;;;;5072469;28;20246;-64
2024/01/08 12:55:45;;;;;;;4.40;3.45;;;;;;;;;;5072655;28;20249;-67
2024/01/08 12:58:12;;;;;;;4.07;3.30;;;;;;;;;;5072998;28;20223;-61
2024/01/08 13:00:43;;;;;;;3.08;2.70;;;;;;;;;;5073217;28;20609;-65
2024/01/08 13:03:10;;;;;;;8.70;3.65;;;;;;;;;;5072784;28;20238;-65
2024/01/08 13:05:38;;;;;;;4.00;3.17;;;;;;;;;;5072938;28;20192;-64
2024/01/08 13:08:05;;;;;;;4.28;3.70;;;;;;;;;;5073118;28;20193;-61
2024/01/08 13:10:43;;;;;;;6.65;3.60;;;;;;;;;;5072888;28;20709;-62
2024/01/08 13:13:10;;;;;;;3.70;3.20;;;;;;;;;;5071242;28;20526;-63
2024/01/08 13:15:37;;;;;;;5.20;3.30;;;;;;;;;;5072573;28;20195;-63
2024/01/08 13:18:06;;;;;;;4.70;3.67;;;;;;;;;;5072797;28;20766;-60
2024/01/08 13:20:37;;;;;;;6.38;4.50;;;;;;;;;;5071691;28;20534;-62
2024/01/08 13:23:04;;;;;;;4.97;3.35;;;;;;;;;;5072777;28;20276;-63
2024/01/08 13:25:31;;;;;;;3.50;2.92;;;;;;;;;;5072603;28;20592;-63
2024/01/08 13:28:01;;;;;;;6.40;3.65;;;;;;;;;;5072772;28;20197;-62
2024/01/08 13:30:29;;;;;;;5.53;3.55;;;;;;;;;;5072793;28;20216;-61
2024/01/08 13:32:57;;;;;;;5.53;3.17;;;;;;;;;;5072734;28;20239;-62
2024/01/08 13:35:25;;;;;;;5.10;3.10;;;;;;;;;;5072303;28;20645;-61
2024/01/08 13:37:52;;;;;;;5.22;3.33;;;;;;;;;;5072538;28;20283;-57
2024/01/08 13:40:28;;;;;;;6.18;3.63;;;;;;;;;;5072412;28;20244;-62
2024/01/08 13:42:55;;;;;;;5.13;3.45;;;;;;;;;;5072628;28;20192;-62
2024/01/08 13:45:22;;;;;;;12.77;3.35;;;;;;;;;;5072587;28;20255;-62
2024/01/08 13:48:02;;;;;;;6.25;3.65;;;;;;;;;;5072559;28;20652;-60
2024/01/08 13:50:30;;;;;;;6.53;3.83;;;;;;;;;;5071840;28;20254;-60
2024/01/08 13:52:58;;;;;;;4.93;4.28;;;;;;;;;;5072530;28;20197;-61
2024/01/08 13:55:35;;;;;;;3.45;3.13;;;;;;;;;;5072121;28;20225;-60
2024/01/08 13:58:04;;;;;;;4.40;3.40;;;;;;;;;;5071961;28;20545;-62
2024/01/08 14:00:31;;;;;;;6.13;3.70;;;;;;;;;;5072250;28;20251;-62
2024/01/08 14:02:58;;;;;;;5.85;3.55;;;;;;;;;;5072174;28;20217;-62
2024/01/08 14:05:41;;;;;;;5.22;3.80;;;;;;;;;;5073422;28;20193;-63
2024/01/08 14:08:09;;;;;;;5.80;4.22;;;;;;;;;;5075926;28;20197;-62
2024/01/08 14:10:38;;;;;;;5.45;3.70;;;;;;;;;;5075882;28;20556;-62
2024/01/08 14:13:17;;;;;;;4.95;3.88;;;;;;;;;;5075709;28;20268;-62
2024/01/08 14:15:44;;;;;;;4.97;3.63;;;;;;;;;;5075508;28;20210;-62
2024/01/08 14:18:12;;;;;;;5.80;3.58;;;;;;;;;;5075761;28;20189;-63
2024/01/08 14:20:39;;;;;;;5.38;4.22;;;;;;;;;;5075706;28;20228;-63
2024/01/08 14:23:12;;;;;;;5.15;3.92;;;;;;;;;;5075747;28;20196;-63
2024/01/08 14:25:42;;;;;;;7.78;4.60;;;;;;;;;;5075776;28;20293;-62
2024/01/08 14:28:09;;;;;;;5.75;3.85;;;;;;;;;;5075529;28;20200;-63
2024/01/08 14:30:57;;;;;;;4.18;3.40;;;;;;;;;;5075692;28;20276;-63
2024/01/08 14:33:25;;;;;;;8.48;4.55;;;;;;;;;;5075472;28;20246;-63
2024/01/08 14:35:52;;;;;;;6.60;4.82;;;;;;;;;;5074899;28;20713;-62
2024/01/08 14:38:34;;;;;;;5.60;4.50;;;;;;;;;;5075345;28;20276;-63
2024/01/08 14:41:02;;;;;;;7.88;4.60;;;;;;;;;;5074359;28;20217;-63
2024/01/08 14:43:30;;;;;;;9.70;4.53;;;;;;;;;;5075379;28;20185;-61
2024/01/08 14:46:07;;;;;;;7.22;5.03;;;;;;;;;;5075263;28;20193;-62
2024/01/08 14:48:34;;;;;;;8.45;5.57;;;;;;;;;;5075309;28;20285;-62